createdAt,value
2019-03-10T00:01:34.100Z,73.79
2019-03-10T00:04:04.634Z,74.18
2019-03-10T00:06:35.053Z,73.37
2019-03-10T00:09:06.623Z,73.27
2019-03-10T00:11:37.013Z,73.18
2019-03-10T00:14:07.668Z,71.96
2019-03-10T00:16:38.193Z,72.07
2019-03-10T00:19:08.613Z,72.56
2019-03-10T00:21:39.146Z,71.57
2019-03-10T00:24:10.107Z,71.10
2019-03-10T00:26:40.561Z,71.96
2019-03-10T00:29:11.055Z,72.41
2019-03-10T00:31:41.538Z,73.96
2019-03-10T00:34:12.121Z,73.48
2019-03-10T00:36:42.729Z,73.85
2019-03-10T00:39:47.936Z,73.76
2019-03-10T00:43:15.884Z,72.53
2019-03-10T00:46:42.103Z,69.86
2019-03-10T00:50:02.054Z,69.04
2019-03-10T00:52:39.546Z,67.14
2019-03-10T00:55:10.123Z,67.06
2019-03-10T00:57:40.571Z,68.07
2019-03-10T01:00:17.589Z,68.86
2019-03-10T01:02:48.060Z,69.55
2019-03-10T01:05:19.119Z,69.72
2019-03-10T01:07:49.723Z,70.66
2019-03-10T01:10:20.289Z,70.29
2019-03-10T01:12:50.825Z,70.01
2019-03-10T01:15:21.397Z,67.53
2019-03-10T01:17:53.199Z,66.54
2019-03-10T01:20:23.748Z,66.58
2019-03-10T01:22:54.319Z,66.17
2019-03-10T01:25:25.396Z,65.55
2019-03-10T01:27:55.999Z,64.94
2019-03-10T01:30:26.623Z,65.67
2019-03-10T01:33:47.793Z,66.35
2019-03-10T01:36:16.210Z,66.76
2019-03-10T01:38:46.883Z,66.79
2019-03-10T01:41:17.412Z,68.02
2019-03-10T01:43:47.792Z,69.09
2019-03-10T01:46:18.223Z,69.71
2019-03-10T01:48:48.740Z,70.75
2019-03-10T01:51:19.303Z,71.45
2019-03-10T01:53:49.977Z,70.79
2019-03-10T01:56:20.477Z,71.68
2019-03-10T01:58:51.211Z,71.87
2019-03-10T02:01:21.646Z,70.80
2019-03-10T02:03:52.047Z,71.53
2019-03-10T02:06:22.499Z,71.85
2019-03-10T02:08:52.847Z,70.99
2019-03-10T02:11:23.413Z,70.40
2019-03-10T02:13:53.843Z,70.57
2019-03-10T02:16:24.313Z,70.98
2019-03-10T02:18:54.843Z,71.23
2019-03-10T02:21:25.388Z,71.62
2019-03-10T02:23:55.772Z,71.32
2019-03-10T02:26:26.128Z,71.28
2019-03-10T02:28:56.633Z,71.40
2019-03-10T02:31:27.014Z,71.46
2019-03-10T02:33:57.489Z,72.50
2019-03-10T02:36:28.005Z,72.46
2019-03-10T02:38:58.400Z,72.73
2019-03-10T02:41:28.888Z,72.88
2019-03-10T02:43:59.338Z,73.49
2019-03-10T02:46:29.657Z,73.94
2019-03-10T02:49:00.234Z,74.51
2019-03-10T02:51:30.743Z,73.51
2019-03-10T02:54:01.346Z,73.81
2019-03-10T02:56:31.748Z,74.12
2019-03-10T02:59:02.173Z,74.25
2019-03-10T03:01:32.685Z,74.37
2019-03-10T03:04:03.119Z,75.02
2019-03-10T03:06:33.523Z,75.32
2019-03-10T03:09:04.374Z,75.32
2019-03-10T03:11:34.801Z,75.46
2019-03-10T03:14:05.271Z,75.13
2019-03-10T03:16:35.858Z,75.28
2019-03-10T03:19:06.374Z,75.91
2019-03-10T03:21:43.205Z,76.41
2019-03-10T03:24:08.956Z,76.28
2019-03-10T03:26:39.311Z,76.47
2019-03-10T03:29:09.893Z,76.95
2019-03-10T03:31:59.444Z,77.21
2019-03-10T03:34:29.864Z,77.24
2019-03-10T03:37:00.497Z,77.08
2019-03-10T03:39:44.905Z,77.40
2019-03-10T03:42:15.456Z,77.62
2019-03-10T03:44:45.834Z,77.83
2019-03-10T03:47:16.416Z,78.11
2019-03-10T03:49:47.064Z,78.48
2019-03-10T03:52:17.584Z,78.61
2019-03-10T03:54:48.024Z,78.63
2019-03-10T03:57:18.497Z,78.63
2019-03-10T03:59:48.969Z,78.85
2019-03-10T04:02:38.307Z,78.55
2019-03-10T04:05:09.837Z,78.52
2019-03-10T04:07:40.656Z,78.43
2019-03-10T04:10:11.224Z,78.90
2019-03-10T04:12:41.827Z,79.07
2019-03-10T04:15:12.409Z,79.07
2019-03-10T04:17:42.828Z,79.12
2019-03-10T04:20:13.705Z,79.34
2019-03-10T04:22:44.087Z,79.34
2019-03-10T04:25:15.268Z,79.25
2019-03-10T04:27:46.195Z,79.10
2019-03-10T04:30:16.640Z,78.97
2019-03-10T04:32:47.007Z,78.60
2019-03-10T04:35:17.494Z,78.73
2019-03-10T04:37:48.012Z,79.09
2019-03-10T04:40:18.578Z,79.19
2019-03-10T04:42:48.927Z,79.10
2019-03-10T04:45:19.473Z,78.86
2019-03-10T04:47:49.933Z,78.77
2019-03-10T04:50:20.330Z,78.92
2019-03-10T04:52:50.853Z,79.28
2019-03-10T04:55:40.264Z,79.28
2019-03-10T04:58:13.108Z,78.86
2019-03-10T05:00:45.828Z,78.50
2019-03-10T05:03:16.324Z,78.29
2019-03-10T05:05:47.433Z,78.38
2019-03-10T05:08:17.937Z,78.42
2019-03-10T05:10:48.427Z,78.42
2019-03-10T05:13:19.002Z,78.21
2019-03-10T05:15:49.523Z,78.10
2019-03-10T05:18:19.933Z,77.53
2019-03-10T05:20:50.853Z,77.12
2019-03-10T05:23:43.978Z,76.98
2019-03-10T05:26:16.343Z,77.02
2019-03-10T05:28:50.392Z,77.02
2019-03-10T05:31:21.143Z,76.82
2019-03-10T05:33:51.717Z,76.63
2019-03-10T05:36:22.233Z,76.56
2019-03-10T05:38:52.719Z,76.50
2019-03-10T05:41:24.563Z,76.34
2019-03-10T05:43:55.063Z,76.06
2019-03-10T05:46:25.747Z,75.74
2019-03-10T05:48:56.343Z,75.88
2019-03-10T05:51:26.842Z,75.43
2019-03-10T05:53:57.282Z,74.64
2019-03-10T05:56:27.896Z,74.49
2019-03-10T05:58:58.338Z,74.24
2019-03-10T06:01:28.973Z,73.42
2019-03-10T06:03:59.452Z,73.08
2019-03-10T06:06:29.985Z,72.61
2019-03-10T06:09:00.462Z,72.44
2019-03-10T06:11:30.834Z,72.27
2019-03-10T06:14:01.283Z,72.78
2019-03-10T06:16:31.903Z,73.78
2019-03-10T06:19:02.333Z,73.23
2019-03-10T06:21:32.764Z,73.11
2019-03-10T06:24:03.208Z,73.16
2019-03-10T06:26:33.932Z,73.21
2019-03-10T06:29:04.471Z,72.66
2019-03-10T06:31:35.037Z,73.27
2019-03-10T06:34:05.629Z,73.25
2019-03-10T06:36:36.223Z,73.29
2019-03-10T06:39:07.805Z,73.04
2019-03-10T06:41:38.416Z,73.16
2019-03-10T06:44:09.014Z,72.99
2019-03-10T06:46:39.513Z,72.59
2019-03-10T06:49:10.023Z,72.76
2019-03-10T06:51:41.054Z,72.54
2019-03-10T06:54:11.526Z,71.78
2019-03-10T06:56:42.027Z,71.27
2019-03-10T06:59:12.629Z,71.30
2019-03-10T07:01:44.173Z,71.29
2019-03-10T07:04:14.804Z,70.90
2019-03-10T07:06:45.281Z,70.34
2019-03-10T07:09:15.765Z,69.72
2019-03-10T07:11:46.314Z,68.17
2019-03-10T07:14:16.977Z,65.75
2019-03-10T07:16:47.433Z,63.25
2019-03-10T07:19:17.816Z,61.49
2019-03-10T07:21:48.192Z,60.90
2019-03-10T07:24:18.762Z,61.33
2019-03-10T07:26:49.143Z,59.19
2019-03-10T07:29:38.475Z,59.23
2019-03-10T07:32:17.837Z,58.74
2019-03-10T07:35:07.233Z,56.30
2019-03-10T07:37:48.018Z,52.67
2019-03-10T07:40:37.403Z,53.67
2019-03-10T07:43:19.909Z,55.95
2019-03-10T07:46:06.333Z,58.45
2019-03-10T07:48:55.677Z,60.04
2019-03-10T07:51:39.742Z,60.04
2019-03-10T07:54:29.008Z,60.70
2019-03-10T07:57:18.472Z,61.47
2019-03-10T08:00:07.693Z,61.35
2019-03-10T08:02:45.429Z,59.89
2019-03-10T08:05:29.242Z,59.53
2019-03-10T08:08:07.715Z,58.36
2019-03-10T08:10:57.014Z,60.52
2019-03-10T08:13:46.408Z,59.98
2019-03-10T08:16:35.843Z,59.00
2019-03-10T08:19:21.875Z,59.49
2019-03-10T08:22:12.083Z,59.66
2019-03-10T08:25:01.364Z,60.52
2019-03-10T08:28:00.939Z,62.54
2019-03-10T08:30:41.823Z,60.22
2019-03-10T08:33:28.678Z,59.68
2019-03-10T08:36:07.345Z,59.54
2019-03-10T08:38:55.517Z,59.78
2019-03-10T08:41:35.615Z,60.55
2019-03-10T08:44:21.072Z,59.42
2019-03-10T08:46:59.653Z,58.63
2019-03-10T08:49:47.144Z,59.40
2019-03-10T08:52:32.673Z,60.02
2019-03-10T08:55:18.014Z,58.74
2019-03-10T08:58:09.067Z,59.32
2019-03-10T09:00:52.473Z,59.38
2019-03-10T09:03:42.133Z,58.37
2019-03-10T09:06:31.768Z,55.89
2019-03-10T09:09:10.557Z,55.32
2019-03-10T09:11:59.950Z,52.65
2019-03-10T09:14:37.709Z,52.34
2019-03-10T09:17:27.611Z,49.13
2019-03-10T09:20:17.064Z,48.35
2019-03-10T09:23:06.773Z,46.78
2019-03-10T09:25:56.206Z,46.70
2019-03-10T09:28:41.394Z,45.14
2019-03-10T09:31:19.788Z,45.34
2019-03-10T09:34:09.195Z,47.76
2019-03-10T09:36:59.276Z,46.56
2019-03-10T09:39:38.932Z,49.99
2019-03-10T09:42:28.411Z,50.67
2019-03-10T09:45:17.843Z,50.76
2019-03-10T09:48:07.169Z,51.99
2019-03-10T09:50:56.467Z,52.31
2019-03-10T09:53:45.922Z,52.39
2019-03-10T09:56:35.344Z,51.17
2019-03-10T09:59:22.297Z,52.11
2019-03-10T10:02:04.396Z,53.26
2019-03-10T10:04:53.663Z,50.43
2019-03-10T10:07:35.943Z,50.44
2019-03-10T10:10:22.776Z,51.54
2019-03-10T10:13:12.113Z,51.99
2019-03-10T10:16:01.504Z,52.21
2019-03-10T10:18:46.283Z,51.82
2019-03-10T10:21:36.231Z,52.12
2019-03-10T10:24:25.639Z,53.23
2019-03-10T10:27:14.989Z,53.02
2019-03-10T10:30:04.327Z,52.21
2019-03-10T10:32:53.778Z,52.99
2019-03-10T10:35:43.382Z,54.55
2019-03-10T10:38:23.571Z,54.70
2019-03-10T10:41:07.767Z,53.42
2019-03-10T10:43:51.203Z,54.13
2019-03-10T10:46:40.654Z,51.70
2019-03-10T10:49:21.730Z,52.22
2019-03-10T10:52:08.556Z,51.16
2019-03-10T10:54:57.959Z,51.93
2019-03-10T10:57:37.031Z,52.94
2019-03-10T11:00:23.888Z,53.67
2019-03-10T11:03:13.827Z,52.80
2019-03-10T11:06:03.192Z,52.64
2019-03-10T11:08:48.069Z,54.40
2019-03-10T11:11:37.458Z,53.82
2019-03-10T11:14:26.945Z,53.44
2019-03-10T11:17:11.478Z,53.97
2019-03-10T11:19:50.253Z,55.50
2019-03-10T11:22:25.603Z,57.01
2019-03-10T11:25:14.175Z,56.69
2019-03-10T11:27:54.077Z,55.76
2019-03-10T11:30:41.258Z,55.83
2019-03-10T11:33:30.843Z,57.29
2019-03-10T11:36:12.433Z,60.31
2019-03-10T11:39:01.813Z,60.86
2019-03-10T11:41:45.104Z,62.58
2019-03-10T11:44:34.501Z,63.66
2019-03-10T11:47:13.119Z,62.90
2019-03-10T11:49:54.365Z,63.72
2019-03-10T11:52:44.848Z,65.74
2019-03-10T11:55:37.368Z,64.10
2019-03-10T11:58:26.823Z,67.43
2019-03-10T12:01:02.584Z,67.17
2019-03-10T12:03:46.804Z,67.94
2019-03-10T12:06:36.363Z,69.21
2019-03-10T12:09:15.803Z,72.65
2019-03-10T12:11:46.393Z,73.45
2019-03-10T12:14:17.074Z,74.31
2019-03-10T12:16:47.723Z,75.86
2019-03-10T12:19:18.292Z,75.84
2019-03-10T12:21:49.354Z,75.82
2019-03-10T12:24:21.012Z,75.84
2019-03-10T12:26:51.761Z,76.08
2019-03-10T12:29:22.408Z,75.95
2019-03-10T12:31:52.956Z,73.61
2019-03-10T12:34:23.658Z,75.57
2019-03-10T12:36:54.243Z,75.10
2019-03-10T12:39:25.672Z,76.31
2019-03-10T12:41:58.757Z,78.10
2019-03-10T12:44:30.712Z,77.85
2019-03-10T12:47:02.090Z,76.78
2019-03-10T12:49:32.720Z,77.63
2019-03-10T12:52:05.761Z,78.06
2019-03-10T12:54:39.960Z,78.74
2019-03-10T12:57:10.693Z,77.97
2019-03-10T12:59:41.968Z,78.90
2019-03-10T13:02:12.569Z,79.20
2019-03-10T13:04:45.487Z,78.15
2019-03-10T13:07:16.333Z,77.70
2019-03-10T13:09:47.506Z,79.19
2019-03-10T13:12:18.138Z,79.13
2019-03-10T13:14:59.039Z,79.31
2019-03-10T13:17:21.109Z,81.01
2019-03-10T13:19:51.786Z,81.50
2019-03-10T13:22:22.493Z,82.42
2019-03-10T13:24:53.060Z,83.89
2019-03-10T13:27:23.707Z,83.38
2019-03-10T13:29:55.862Z,82.14
2019-03-10T13:32:29.660Z,83.01
2019-03-10T13:35:00.439Z,83.52
2019-03-10T13:37:31.124Z,84.94
2019-03-10T13:40:01.812Z,86.40
2019-03-10T13:42:35.452Z,87.03
2019-03-10T13:45:06.631Z,87.71
2019-03-10T13:47:38.797Z,87.85
2019-03-10T13:50:13.993Z,87.70
2019-03-10T13:52:45.873Z,88.12
2019-03-10T13:55:18.813Z,87.97
2019-03-10T13:57:49.468Z,88.18
2019-03-10T14:00:23.783Z,88.57
2019-03-10T14:02:56.907Z,88.04
2019-03-10T14:05:32.345Z,88.84
2019-03-10T14:08:07.146Z,88.20
2019-03-10T14:10:46.063Z,88.22
2019-03-10T14:13:18.553Z,88.22
2019-03-10T14:15:52.335Z,87.76
2019-03-10T14:18:27.038Z,87.28
2019-03-10T14:20:58.754Z,88.43
2019-03-10T14:23:29.449Z,88.01
2019-03-10T14:26:00.043Z,88.33
2019-03-10T14:28:35.045Z,87.76
2019-03-10T14:31:05.813Z,88.79
2019-03-10T14:33:36.571Z,89.74
2019-03-10T14:36:07.567Z,89.74
2019-03-10T14:38:39.439Z,90.04
2019-03-10T14:41:10.160Z,90.27
2019-03-10T14:43:44.042Z,90.14
2019-03-10T14:46:14.678Z,90.33
2019-03-10T14:48:45.520Z,90.71
2019-03-10T14:51:22.114Z,91.03
2019-03-10T14:53:53.623Z,90.45
2019-03-10T14:56:25.798Z,90.79
2019-03-10T14:58:56.314Z,91.19
2019-03-10T15:01:30.597Z,91.27
2019-03-10T15:04:01.264Z,91.09
2019-03-10T15:06:38.438Z,91.19
2019-03-10T15:09:09.974Z,91.18
2019-03-10T15:11:41.028Z,90.61
2019-03-10T15:14:13.757Z,88.81
2019-03-10T15:16:44.430Z,89.49
2019-03-10T15:19:15.278Z,89.63
2019-03-10T15:21:50.100Z,89.77
2019-03-10T15:24:23.098Z,90.34
2019-03-10T15:26:55.057Z,90.92
2019-03-10T15:29:25.648Z,91.62
2019-03-10T15:31:57.379Z,91.73
2019-03-10T15:34:34.918Z,92.01
2019-03-10T15:37:07.944Z,92.33
2019-03-10T15:39:52.914Z,92.26
2019-03-10T15:42:23.592Z,92.37
2019-03-10T15:44:58.082Z,92.66
2019-03-10T15:47:34.566Z,92.97
2019-03-10T15:50:07.651Z,93.12
2019-03-10T15:52:38.517Z,92.91
2019-03-10T15:55:11.835Z,92.74
2019-03-10T15:57:50.487Z,93.12
2019-03-10T16:00:23.401Z,93.08
2019-03-10T16:02:56.523Z,93.10
2019-03-10T16:05:29.122Z,92.96
2019-03-10T16:07:59.877Z,92.92
2019-03-10T16:10:35.589Z,92.77
2019-03-10T16:13:06.382Z,92.43
2019-03-10T16:15:39.178Z,92.30
2019-03-10T16:18:13.480Z,92.67
2019-03-10T16:20:57.192Z,93.06
2019-03-10T16:23:32.903Z,93.44
2019-03-10T16:26:09.434Z,93.59
2019-03-10T16:28:40.175Z,93.63
2019-03-10T16:31:10.858Z,93.77
2019-03-10T16:33:46.143Z,93.75
2019-03-10T16:36:20.133Z,93.77
2019-03-10T16:38:58.666Z,93.62
2019-03-10T16:41:31.445Z,93.52
2019-03-10T16:44:02.087Z,93.72
2019-03-10T16:46:33.873Z,93.94
2019-03-10T16:49:05.778Z,94.11
2019-03-10T16:51:37.709Z,94.25
2019-03-10T16:54:16.818Z,94.39
2019-03-10T16:56:47.737Z,94.60
2019-03-10T16:59:25.743Z,94.78
2019-03-10T17:01:56.363Z,94.83
2019-03-10T17:04:31.443Z,94.79
2019-03-10T17:07:08.483Z,94.80
2019-03-10T17:09:44.378Z,94.78
2019-03-10T17:12:17.123Z,94.79
2019-03-10T17:14:49.800Z,94.81
2019-03-10T17:17:23.952Z,94.90
2019-03-10T17:19:54.654Z,94.86
2019-03-10T17:22:27.834Z,94.83
2019-03-10T17:25:02.441Z,94.88
2019-03-10T17:27:38.512Z,94.85
2019-03-10T17:30:15.504Z,94.91
2019-03-10T17:32:48.506Z,94.85
2019-03-10T17:35:19.612Z,94.69
2019-03-10T17:37:56.115Z,94.74
2019-03-10T17:40:29.834Z,94.69
2019-03-10T17:43:00.558Z,94.68
2019-03-10T17:45:32.468Z,94.61
2019-03-10T17:48:04.356Z,94.68
2019-03-10T17:50:35.104Z,94.71
2019-03-10T17:53:21.706Z,94.80
2019-03-10T17:55:57.913Z,94.92
2019-03-10T17:58:33.758Z,95.09
2019-03-10T18:01:07.443Z,95.14
2019-03-10T18:03:39.384Z,95.17
2019-03-10T18:06:14.646Z,95.17
2019-03-10T18:08:45.588Z,95.11
2019-03-10T18:11:23.049Z,95.06
2019-03-10T18:13:55.629Z,95.09
2019-03-10T18:16:27.694Z,95.23
2019-03-10T18:19:00.558Z,95.29
2019-03-10T18:21:35.977Z,95.27
2019-03-10T18:24:10.390Z,95.18
2019-03-10T18:26:42.093Z,95.09
2019-03-10T18:29:16.213Z,95.34
2019-03-10T18:31:47.138Z,95.42
2019-03-10T18:34:18.859Z,95.42
2019-03-10T18:36:54.940Z,95.45
2019-03-10T18:39:29.393Z,95.45
2019-03-10T18:42:06.522Z,95.47
2019-03-10T18:44:39.661Z,95.58
2019-03-10T18:47:12.082Z,95.76
2019-03-10T18:49:45.018Z,95.98
2019-03-10T18:52:23.528Z,96.18
2019-03-10T18:54:55.203Z,96.37
2019-03-10T18:57:30.601Z,96.48
2019-03-10T19:00:04.488Z,96.58
2019-03-10T19:02:40.781Z,96.65
2019-03-10T19:05:16.599Z,96.70
2019-03-10T19:07:50.455Z,96.74
2019-03-10T19:10:22.472Z,96.76
2019-03-10T19:12:59.599Z,96.81
2019-03-10T19:15:33.608Z,96.83
2019-03-10T19:18:08.078Z,96.81
2019-03-10T19:20:42.588Z,96.83
2019-03-10T19:23:16.503Z,96.81
2019-03-10T19:25:52.472Z,96.81
2019-03-10T19:28:23.123Z,96.84
2019-03-10T19:30:55.004Z,96.93
2019-03-10T19:33:26.759Z,96.98
2019-03-10T19:36:01.024Z,97.05
2019-03-10T19:38:32.704Z,97.08
2019-03-10T19:41:07.447Z,96.94
2019-03-10T19:43:41.870Z,96.43
2019-03-10T19:46:18.380Z,95.68
2019-03-10T19:48:55.925Z,94.84
2019-03-10T19:51:29.108Z,94.06
2019-03-10T19:54:03.410Z,93.45
2019-03-10T19:56:37.564Z,93.20
2019-03-10T19:59:09.709Z,92.89
2019-03-10T20:01:46.868Z,92.41
2019-03-10T20:04:27.132Z,91.90
2019-03-10T20:07:07.286Z,90.51
2019-03-10T20:09:48.282Z,89.65
2019-03-10T20:12:29.947Z,88.76
2019-03-10T20:15:05.481Z,88.14
2019-03-10T20:17:53.484Z,87.61
2019-03-10T20:20:41.249Z,86.93
2019-03-10T20:23:17.828Z,86.79
2019-03-10T20:25:52.184Z,86.52
2019-03-10T20:28:25.875Z,86.46
2019-03-10T20:31:00.277Z,85.71
2019-03-10T20:33:34.079Z,85.30
2019-03-10T20:36:07.486Z,85.29
2019-03-10T20:38:43.989Z,84.60
2019-03-10T20:41:16.114Z,84.60
2019-03-10T20:44:05.960Z,84.31
2019-03-10T20:46:39.415Z,83.44
2019-03-10T20:49:14.533Z,82.94
2019-03-10T20:52:05.637Z,82.20
2019-03-10T20:54:38.166Z,82.09
2019-03-10T20:57:13.354Z,82.29
2019-03-10T20:59:47.052Z,82.85
2019-03-10T21:02:23.876Z,82.59
2019-03-10T21:04:56.613Z,82.60
2019-03-10T21:07:27.363Z,82.71
2019-03-10T21:10:01.459Z,81.59
2019-03-10T21:12:40.623Z,80.46
2019-03-10T21:15:16.034Z,78.85
2019-03-10T21:17:51.351Z,75.09
2019-03-10T21:20:26.063Z,72.04
2019-03-10T21:22:58.141Z,71.00
2019-03-10T21:25:31.018Z,68.12
2019-03-10T21:28:05.107Z,67.65
2019-03-10T21:30:35.709Z,65.22
2019-03-10T21:33:06.372Z,65.33
2019-03-10T21:35:39.677Z,63.69
2019-03-10T21:38:10.222Z,62.52
2019-03-10T21:40:43.193Z,60.34
2019-03-10T21:43:13.769Z,59.39
2019-03-10T21:45:45.502Z,57.02
2019-03-10T21:48:16.712Z,57.58
2019-03-10T21:50:47.403Z,56.74
2019-03-10T21:53:18.044Z,55.96
2019-03-10T21:55:48.773Z,55.88
2019-03-10T21:58:19.273Z,57.02
2019-03-10T22:00:49.832Z,56.71
2019-03-10T22:03:20.548Z,56.03
2019-03-10T22:05:51.044Z,55.80
2019-03-10T22:08:21.548Z,55.75
2019-03-10T22:10:52.183Z,55.63
2019-03-10T22:13:24.231Z,56.51
2019-03-10T22:15:54.669Z,56.71
2019-03-10T22:18:25.789Z,57.83
2019-03-10T22:20:56.391Z,58.14
2019-03-10T22:23:26.923Z,58.54
2019-03-10T22:25:57.280Z,58.09
2019-03-10T22:28:27.681Z,56.53
2019-03-10T22:30:58.210Z,56.62
2019-03-10T22:33:29.095Z,57.78
2019-03-10T22:35:59.575Z,60.44
2019-03-10T22:38:30.230Z,62.14
2019-03-10T22:41:01.274Z,62.99
2019-03-10T22:43:32.340Z,62.58
2019-03-10T22:46:03.112Z,61.86
2019-03-10T22:48:33.789Z,61.62
2019-03-10T22:51:04.412Z,60.18
2019-03-10T22:53:35.586Z,60.57
2019-03-10T22:56:06.198Z,59.03
2019-03-10T22:58:36.852Z,57.98
2019-03-10T23:01:07.743Z,57.96
2019-03-10T23:03:38.717Z,57.38
2019-03-10T23:06:09.450Z,57.69
2019-03-10T23:08:39.973Z,57.35
2019-03-10T23:11:10.661Z,56.92
2019-03-10T23:13:41.267Z,56.94
2019-03-10T23:16:11.879Z,58.22
2019-03-10T23:18:42.490Z,58.49
2019-03-10T23:21:13.013Z,59.47
2019-03-10T23:23:43.453Z,60.34
2019-03-10T23:26:14.173Z,63.44
2019-03-10T23:28:44.609Z,67.23
2019-03-10T23:31:15.119Z,71.01
2019-03-10T23:33:45.637Z,74.22
2019-03-10T23:36:16.193Z,80.39
2019-03-10T23:38:46.640Z,84.82
2019-03-10T23:41:17.084Z,86.20
2019-03-10T23:43:47.649Z,88.22
2019-03-10T23:46:18.311Z,89.30
2019-03-10T23:48:48.684Z,90.46
2019-03-10T23:51:19.128Z,91.23
2019-03-10T23:53:49.747Z,91.85
2019-03-10T23:56:20.264Z,92.06
2019-03-10T23:58:50.707Z,92.29
